sensor_id;sensor_type;location;lat;lon;timestamp;P1;durP1;ratioP1;P2;durP2;ratioP2
7116;SDS011;3600;48.568;7.870;2023-05-10T00:00:46;1.02;;;0.75;;
7116;SDS011;3600;48.568;7.870;2023-05-10T00:03:13;0.50;;;0.50;;
7116;SDS011;3600;48.568;7.870;2023-05-10T00:05:40;0.50;;;0.50;;
7116;SDS011;3600;48.568;7.870;2023-05-10T00:08:06;0.65;;;0.65;;
7116;SDS011;3600;48.568;7.870;2023-05-10T00:10:33;1.88;;;0.73;;
7116;SDS011;3600;48.568;7.870;2023-05-10T00:13:00;1.70;;;0.60;;
7116;SDS011;3600;48.568;7.870;2023-05-10T00:15:27;0.98;;;0.60;;
7116;SDS011;3600;48.568;7.870;2023-05-10T00:17:54;1.02;;;0.75;;
7116;SDS011;3600;48.568;7.870;2023-05-10T00:20:20;0.77;;;0.50;;
7116;SDS011;3600;48.568;7.870;2023-05-10T00:22:47;0.60;;;0.60;;
7116;SDS011;3600;48.568;7.870;2023-05-10T00:25:14;0.63;;;0.63;;
7116;SDS011;3600;48.568;7.870;2023-05-10T00:27:41;0.65;;;0.52;;
7116;SDS011;3600;48.568;7.870;2023-05-10T00:30:08;2.38;;;0.70;;
7116;SDS011;3600;48.568;7.870;2023-05-10T00:32:34;0.70;;;0.70;;
7116;SDS011;3600;48.568;7.870;2023-05-10T00:35:01;0.70;;;0.70;;
7116;SDS011;3600;48.568;7.870;2023-05-10T00:37:28;0.70;;;0.70;;
7116;SDS011;3600;48.568;7.870;2023-05-10T00:39:55;0.80;;;0.80;;
7116;SDS011;3600;48.568;7.870;2023-05-10T00:42:21;0.70;;;0.68;;
7116;SDS011;3600;48.568;7.870;2023-05-10T00:44:48;1.10;;;0.90;;
7116;SDS011;3600;48.568;7.870;2023-05-10T00:47:15;0.75;;;0.75;;
7116;SDS011;3600;48.568;7.870;2023-05-10T00:49:43;0.70;;;0.52;;
7116;SDS011;3600;48.568;7.870;2023-05-10T00:52:10;2.05;;;0.82;;
7116;SDS011;3600;48.568;7.870;2023-05-10T00:54:37;0.88;;;0.70;;
7116;SDS011;3600;48.568;7.870;2023-05-10T00:57:03;0.63;;;0.63;;
7116;SDS011;3600;48.568;7.870;2023-05-10T00:59:30;0.80;;;0.65;;
7116;SDS011;3600;48.568;7.870;2023-05-10T01:01:57;0.93;;;0.52;;
7116;SDS011;3600;48.568;7.870;2023-05-10T01:04:24;2.20;;;0.85;;
7116;SDS011;3600;48.568;7.870;2023-05-10T01:06:52;1.20;;;0.70;;
7116;SDS011;3600;48.568;7.870;2023-05-10T01:09:22;0.88;;;0.88;;
7116;SDS011;3600;48.568;7.870;2023-05-10T01:11:52;0.70;;;0.70;;
7116;SDS011;3600;48.568;7.870;2023-05-10T01:14:20;0.70;;;0.70;;
7116;SDS011;3600;48.568;7.870;2023-05-10T01:16:48;0.60;;;0.60;;
7116;SDS011;3600;48.568;7.870;2023-05-10T01:25:49;2.35;;;0.68;;
7116;SDS011;3600;48.568;7.870;2023-05-10T01:28:27;0.80;;;0.80;;
7116;SDS011;3600;48.568;7.870;2023-05-10T01:34:23;0.93;;;0.80;;
7116;SDS011;3600;48.568;7.870;2023-05-10T01:39:37;0.70;;;0.70;;
7116;SDS011;3600;48.568;7.870;2023-05-10T01:42:20;0.70;;;0.70;;
7116;SDS011;3600;48.568;7.870;2023-05-10T01:44:52;0.47;;;0.47;;
7116;SDS011;3600;48.568;7.870;2023-05-10T01:47:43;1.75;;;0.70;;
7116;SDS011;3600;48.568;7.870;2023-05-10T01:50:15;0.63;;;0.63;;
7116;SDS011;3600;48.568;7.870;2023-05-10T01:52:51;0.77;;;0.75;;
7116;SDS011;3600;48.568;7.870;2023-05-10T01:55:20;0.65;;;0.65;;
7116;SDS011;3600;48.568;7.870;2023-05-10T01:57:51;0.88;;;0.73;;
7116;SDS011;3600;48.568;7.870;2023-05-10T02:00:23;1.33;;;0.70;;
7116;SDS011;3600;48.568;7.870;2023-05-10T02:02:54;0.70;;;0.70;;
7116;SDS011;3600;48.568;7.870;2023-05-10T02:05:26;1.40;;;0.88;;
7116;SDS011;3600;48.568;7.870;2023-05-10T02:07:57;2.13;;;0.80;;
7116;SDS011;3600;48.568;7.870;2023-05-10T02:10:24;1.25;;;0.95;;
7116;SDS011;3600;48.568;7.870;2023-05-10T02:12:52;1.13;;;0.85;;
7116;SDS011;3600;48.568;7.870;2023-05-10T02:15:22;1.13;;;0.70;;
7116;SDS011;3600;48.568;7.870;2023-05-10T02:17:50;0.85;;;0.85;;
7116;SDS011;3600;48.568;7.870;2023-05-10T02:20:20;0.90;;;0.90;;
7116;SDS011;3600;48.568;7.870;2023-05-10T02:22:49;2.08;;;0.65;;
7116;SDS011;3600;48.568;7.870;2023-05-10T02:25:19;2.30;;;1.10;;
7116;SDS011;3600;48.568;7.870;2023-05-10T02:27:47;1.30;;;0.80;;
7116;SDS011;3600;48.568;7.870;2023-05-10T02:30:15;1.00;;;1.00;;
7116;SDS011;3600;48.568;7.870;2023-05-10T02:32:44;0.80;;;0.80;;
7116;SDS011;3600;48.568;7.870;2023-05-10T02:35:11;0.70;;;0.70;;
7116;SDS011;3600;48.568;7.870;2023-05-10T02:37:38;0.82;;;0.82;;
7116;SDS011;3600;48.568;7.870;2023-05-10T02:40:06;1.13;;;1.00;;
7116;SDS011;3600;48.568;7.870;2023-05-10T02:42:35;0.88;;;0.88;;
7116;SDS011;3600;48.568;7.870;2023-05-10T02:45:10;0.70;;;0.70;;
7116;SDS011;3600;48.568;7.870;2023-05-10T02:47:39;1.05;;;0.90;;
7116;SDS011;3600;48.568;7.870;2023-05-10T02:50:06;0.80;;;0.80;;
7116;SDS011;3600;48.568;7.870;2023-05-10T02:52:36;1.67;;;1.00;;
7116;SDS011;3600;48.568;7.870;2023-05-10T02:55:19;1.08;;;1.05;;
7116;SDS011;3600;48.568;7.870;2023-05-10T02:57:52;1.10;;;1.00;;
7116;SDS011;3600;48.568;7.870;2023-05-10T03:00:24;1.20;;;1.10;;
7116;SDS011;3600;48.568;7.870;2023-05-10T03:02:51;2.10;;;1.30;;
7116;SDS011;3600;48.568;7.870;2023-05-10T03:05:19;1.45;;;1.35;;
7116;SDS011;3600;48.568;7.870;2023-05-10T03:07:46;1.05;;;1.05;;
7116;SDS011;3600;48.568;7.870;2023-05-10T03:10:13;1.00;;;1.00;;
7116;SDS011;3600;48.568;7.870;2023-05-10T03:18:18;1.00;;;1.00;;
7116;SDS011;3600;48.568;7.870;2023-05-10T03:20:50;0.98;;;0.90;;
7116;SDS011;3600;48.568;7.870;2023-05-10T03:25:56;4.72;;;1.27;;
7116;SDS011;3600;48.568;7.870;2023-05-10T03:28:23;1.70;;;0.85;;
7116;SDS011;3600;48.568;7.870;2023-05-10T03:30:53;1.63;;;1.10;;
7116;SDS011;3600;48.568;7.870;2023-05-10T03:33:20;1.15;;;1.15;;
7116;SDS011;3600;48.568;7.870;2023-05-10T03:35:47;1.17;;;1.08;;
7116;SDS011;3600;48.568;7.870;2023-05-10T03:38:14;2.55;;;1.20;;
7116;SDS011;3600;48.568;7.870;2023-05-10T03:40:41;1.10;;;1.10;;
7116;SDS011;3600;48.568;7.870;2023-05-10T03:43:07;1.45;;;1.35;;
7116;SDS011;3600;48.568;7.870;2023-05-10T03:45:34;2.25;;;1.08;;
7116;SDS011;3600;48.568;7.870;2023-05-10T03:48:01;2.88;;;1.08;;
7116;SDS011;3600;48.568;7.870;2023-05-10T03:50:28;2.50;;;1.27;;
7116;SDS011;3600;48.568;7.870;2023-05-10T03:52:55;1.73;;;1.60;;
7116;SDS011;3600;48.568;7.870;2023-05-10T03:55:22;2.00;;;1.40;;
7116;SDS011;3600;48.568;7.870;2023-05-10T03:57:49;1.65;;;1.52;;
7116;SDS011;3600;48.568;7.870;2023-05-10T04:00:16;2.33;;;1.92;;
7116;SDS011;3600;48.568;7.870;2023-05-10T04:02:43;1.80;;;1.70;;
7116;SDS011;3600;48.568;7.870;2023-05-10T04:05:11;1.60;;;1.50;;
7116;SDS011;3600;48.568;7.870;2023-05-10T04:07:38;4.25;;;1.55;;
7116;SDS011;3600;48.568;7.870;2023-05-10T04:10:05;1.38;;;1.38;;
7116;SDS011;3600;48.568;7.870;2023-05-10T04:12:33;2.00;;;1.58;;
7116;SDS011;3600;48.568;7.870;2023-05-10T04:14:59;2.55;;;1.60;;
7116;SDS011;3600;48.568;7.870;2023-05-10T04:17:26;1.60;;;1.50;;
7116;SDS011;3600;48.568;7.870;2023-05-10T04:19:53;1.70;;;1.60;;
7116;SDS011;3600;48.568;7.870;2023-05-10T04:22:20;1.95;;;1.50;;
7116;SDS011;3600;48.568;7.870;2023-05-10T04:24:47;1.75;;;1.60;;
7116;SDS011;3600;48.568;7.870;2023-05-10T04:27:14;1.30;;;1.20;;
7116;SDS011;3600;48.568;7.870;2023-05-10T04:29:41;1.67;;;1.58;;
7116;SDS011;3600;48.568;7.870;2023-05-10T04:32:07;1.60;;;1.38;;
7116;SDS011;3600;48.568;7.870;2023-05-10T04:34:36;1.25;;;1.25;;
7116;SDS011;3600;48.568;7.870;2023-05-10T04:37:03;3.85;;;1.77;;
7116;SDS011;3600;48.568;7.870;2023-05-10T04:39:30;1.90;;;1.52;;
7116;SDS011;3600;48.568;7.870;2023-05-10T04:41:57;1.63;;;1.50;;
7116;SDS011;3600;48.568;7.870;2023-05-10T04:44:23;1.95;;;1.70;;
7116;SDS011;3600;48.568;7.870;2023-05-10T04:46:50;1.80;;;1.70;;
7116;SDS011;3600;48.568;7.870;2023-05-10T04:49:17;1.98;;;1.65;;
7116;SDS011;3600;48.568;7.870;2023-05-10T04:51:44;2.58;;;1.90;;
7116;SDS011;3600;48.568;7.870;2023-05-10T04:54:10;1.80;;;1.70;;
7116;SDS011;3600;48.568;7.870;2023-05-10T04:56:37;1.50;;;1.40;;
7116;SDS011;3600;48.568;7.870;2023-05-10T04:59:04;1.58;;;1.48;;
7116;SDS011;3600;48.568;7.870;2023-05-10T05:01:31;2.20;;;1.48;;
7116;SDS011;3600;48.568;7.870;2023-05-10T05:03:58;2.58;;;1.60;;
7116;SDS011;3600;48.568;7.870;2023-05-10T05:06:25;3.28;;;1.80;;
7116;SDS011;3600;48.568;7.870;2023-05-10T05:08:53;2.17;;;1.85;;
7116;SDS011;3600;48.568;7.870;2023-05-10T05:11:20;3.35;;;1.27;;
7116;SDS011;3600;48.568;7.870;2023-05-10T05:13:47;1.90;;;1.75;;
7116;SDS011;3600;48.568;7.870;2023-05-10T05:16:13;3.58;;;3.25;;
7116;SDS011;3600;48.568;7.870;2023-05-10T05:18:40;2.40;;;2.20;;
7116;SDS011;3600;48.568;7.870;2023-05-10T05:21:16;2.35;;;2.10;;
7116;SDS011;3600;48.568;7.870;2023-05-10T05:23:44;2.22;;;2.03;;
7116;SDS011;3600;48.568;7.870;2023-05-10T05:26:11;2.63;;;1.70;;
7116;SDS011;3600;48.568;7.870;2023-05-10T05:28:38;2.38;;;1.58;;
7116;SDS011;3600;48.568;7.870;2023-05-10T05:31:05;1.80;;;1.67;;
7116;SDS011;3600;48.568;7.870;2023-05-10T05:33:34;1.98;;;1.77;;
7116;SDS011;3600;48.568;7.870;2023-05-10T05:36:01;2.00;;;1.80;;
7116;SDS011;3600;48.568;7.870;2023-05-10T05:38:31;1.90;;;1.80;;
7116;SDS011;3600;48.568;7.870;2023-05-10T05:40:58;2.80;;;1.80;;
7116;SDS011;3600;48.568;7.870;2023-05-10T05:43:25;1.65;;;1.50;;
7116;SDS011;3600;48.568;7.870;2023-05-10T05:45:52;2.92;;;1.95;;
7116;SDS011;3600;48.568;7.870;2023-05-10T05:48:20;4.13;;;1.65;;
7116;SDS011;3600;48.568;7.870;2023-05-10T05:50:47;2.63;;;1.25;;
7116;SDS011;3600;48.568;7.870;2023-05-10T05:53:13;1.40;;;1.30;;
7116;SDS011;3600;48.568;7.870;2023-05-10T05:55:40;1.75;;;1.48;;
7116;SDS011;3600;48.568;7.870;2023-05-10T05:58:16;1.83;;;1.15;;
7116;SDS011;3600;48.568;7.870;2023-05-10T06:00:43;1.90;;;1.30;;
7116;SDS011;3600;48.568;7.870;2023-05-10T06:03:09;1.63;;;1.20;;
7116;SDS011;3600;48.568;7.870;2023-05-10T06:05:36;1.70;;;1.60;;
7116;SDS011;3600;48.568;7.870;2023-05-10T06:08:03;2.70;;;1.67;;
7116;SDS011;3600;48.568;7.870;2023-05-10T06:10:30;1.35;;;1.25;;
7116;SDS011;3600;48.568;7.870;2023-05-10T06:12:57;1.13;;;1.13;;
7116;SDS011;3600;48.568;7.870;2023-05-10T06:15:24;1.60;;;1.50;;
7116;SDS011;3600;48.568;7.870;2023-05-10T06:17:51;1.83;;;1.73;;
7116;SDS011;3600;48.568;7.870;2023-05-10T06:20:17;1.73;;;1.63;;
7116;SDS011;3600;48.568;7.870;2023-05-10T06:22:44;6.15;;;1.70;;
7116;SDS011;3600;48.568;7.870;2023-05-10T06:25:11;4.68;;;1.95;;
7116;SDS011;3600;48.568;7.870;2023-05-10T06:27:38;1.67;;;1.58;;
7116;SDS011;3600;48.568;7.870;2023-05-10T06:30:04;1.85;;;1.60;;
7116;SDS011;3600;48.568;7.870;2023-05-10T06:32:38;1.63;;;1.52;;
7116;SDS011;3600;48.568;7.870;2023-05-10T06:35:06;1.58;;;1.38;;
7116;SDS011;3600;48.568;7.870;2023-05-10T06:37:33;2.33;;;1.33;;
7116;SDS011;3600;48.568;7.870;2023-05-10T06:40:00;1.40;;;1.30;;
7116;SDS011;3600;48.568;7.870;2023-05-10T06:42:28;1.55;;;1.33;;
7116;SDS011;3600;48.568;7.870;2023-05-10T06:44:55;1.27;;;1.27;;
7116;SDS011;3600;48.568;7.870;2023-05-10T06:47:21;1.23;;;1.20;;
7116;SDS011;3600;48.568;7.870;2023-05-10T06:49:48;1.58;;;1.13;;
7116;SDS011;3600;48.568;7.870;2023-05-10T06:52:15;0.73;;;0.70;;
7116;SDS011;3600;48.568;7.870;2023-05-10T06:54:41;0.90;;;0.90;;
7116;SDS011;3600;48.568;7.870;2023-05-10T06:57:08;0.93;;;0.90;;
7116;SDS011;3600;48.568;7.870;2023-05-10T06:59:55;0.88;;;0.80;;
7116;SDS011;3600;48.568;7.870;2023-05-10T07:02:22;0.77;;;0.77;;
7116;SDS011;3600;48.568;7.870;2023-05-10T07:04:49;0.98;;;0.88;;
7116;SDS011;3600;48.568;7.870;2023-05-10T07:07:18;0.95;;;0.90;;
7116;SDS011;3600;48.568;7.870;2023-05-10T07:09:45;2.38;;;1.10;;
7116;SDS011;3600;48.568;7.870;2023-05-10T07:12:11;1.27;;;1.17;;
7116;SDS011;3600;48.568;7.870;2023-05-10T07:14:41;2.03;;;1.92;;
7116;SDS011;3600;48.568;7.870;2023-05-10T07:17:08;1.02;;;0.90;;
7116;SDS011;3600;48.568;7.870;2023-05-10T07:19:35;0.80;;;0.80;;
7116;SDS011;3600;48.568;7.870;2023-05-10T07:22:02;0.65;;;0.65;;
7116;SDS011;3600;48.568;7.870;2023-05-10T07:24:29;2.00;;;1.08;;
7116;SDS011;3600;48.568;7.870;2023-05-10T07:26:57;0.95;;;0.95;;
7116;SDS011;3600;48.568;7.870;2023-05-10T07:29:24;1.20;;;0.70;;
7116;SDS011;3600;48.568;7.870;2023-05-10T07:31:51;2.15;;;0.80;;
7116;SDS011;3600;48.568;7.870;2023-05-10T07:34:24;1.73;;;0.80;;
7116;SDS011;3600;48.568;7.870;2023-05-10T07:36:51;3.78;;;1.27;;
7116;SDS011;3600;48.568;7.870;2023-05-10T07:39:18;0.85;;;0.70;;
7116;SDS011;3600;48.568;7.870;2023-05-10T07:41:53;1.10;;;1.10;;
7116;SDS011;3600;48.568;7.870;2023-05-10T07:44:21;0.85;;;0.85;;
7116;SDS011;3600;48.568;7.870;2023-05-10T07:46:48;1.95;;;1.20;;
7116;SDS011;3600;48.568;7.870;2023-05-10T07:49:14;2.40;;;0.77;;
7116;SDS011;3600;48.568;7.870;2023-05-10T07:51:41;1.10;;;1.10;;
7116;SDS011;3600;48.568;7.870;2023-05-10T07:54:08;2.25;;;1.15;;
7116;SDS011;3600;48.568;7.870;2023-05-10T07:56:35;0.80;;;0.68;;
7116;SDS011;3600;48.568;7.870;2023-05-10T07:59:02;0.70;;;0.70;;
7116;SDS011;3600;48.568;7.870;2023-05-10T08:01:35;1.42;;;0.80;;
7116;SDS011;3600;48.568;7.870;2023-05-10T08:04:02;4.07;;;0.90;;
7116;SDS011;3600;48.568;7.870;2023-05-10T08:06:29;1.92;;;0.80;;
7116;SDS011;3600;48.568;7.870;2023-05-10T08:08:56;0.80;;;0.80;;
7116;SDS011;3600;48.568;7.870;2023-05-10T08:11:23;0.75;;;0.73;;
7116;SDS011;3600;48.568;7.870;2023-05-10T08:13:50;1.05;;;0.93;;
7116;SDS011;3600;48.568;7.870;2023-05-10T08:16:17;0.70;;;0.70;;
7116;SDS011;3600;48.568;7.870;2023-05-10T08:18:45;1.65;;;0.85;;
7116;SDS011;3600;48.568;7.870;2023-05-10T08:21:13;4.07;;;1.83;;
7116;SDS011;3600;48.568;7.870;2023-05-10T08:23:41;0.65;;;0.65;;
7116;SDS011;3600;48.568;7.870;2023-05-10T08:26:10;1.25;;;1.15;;
7116;SDS011;3600;48.568;7.870;2023-05-10T08:28:37;1.45;;;1.00;;
7116;SDS011;3600;48.568;7.870;2023-05-10T08:31:04;4.60;;;0.82;;
7116;SDS011;3600;48.568;7.870;2023-05-10T08:33:31;0.82;;;0.82;;
7116;SDS011;3600;48.568;7.870;2023-05-10T08:35:58;0.80;;;0.65;;
7116;SDS011;3600;48.568;7.870;2023-05-10T08:38:24;0.50;;;0.50;;
7116;SDS011;3600;48.568;7.870;2023-05-10T08:40:52;2.50;;;0.80;;
7116;SDS011;3600;48.568;7.870;2023-05-10T08:43:23;1.05;;;0.90;;
7116;SDS011;3600;48.568;7.870;2023-05-10T08:45:55;1.00;;;0.88;;
7116;SDS011;3600;48.568;7.870;2023-05-10T08:48:24;0.95;;;0.95;;
7116;SDS011;3600;48.568;7.870;2023-05-10T08:50:52;1.70;;;1.02;;
7116;SDS011;3600;48.568;7.870;2023-05-10T08:53:23;1.20;;;1.10;;
7116;SDS011;3600;48.568;7.870;2023-05-10T08:55:52;1.17;;;1.10;;
7116;SDS011;3600;48.568;7.870;2023-05-10T08:58:19;2.55;;;0.98;;
7116;SDS011;3600;48.568;7.870;2023-05-10T09:00:48;1.30;;;1.20;;
7116;SDS011;3600;48.568;7.870;2023-05-10T09:03:17;1.33;;;1.10;;
7116;SDS011;3600;48.568;7.870;2023-05-10T09:05:44;1.83;;;1.15;;
7116;SDS011;3600;48.568;7.870;2023-05-10T09:08:11;1.00;;;1.00;;
7116;SDS011;3600;48.568;7.870;2023-05-10T09:10:39;1.27;;;1.05;;
7116;SDS011;3600;48.568;7.870;2023-05-10T09:13:08;2.03;;;1.50;;
7116;SDS011;3600;48.568;7.870;2023-05-10T09:15:37;1.83;;;1.15;;
7116;SDS011;3600;48.568;7.870;2023-05-10T09:18:04;0.95;;;0.90;;
7116;SDS011;3600;48.568;7.870;2023-05-10T09:20:31;0.60;;;0.60;;
7116;SDS011;3600;48.568;7.870;2023-05-10T09:22:58;1.75;;;0.70;;
7116;SDS011;3600;48.568;7.870;2023-05-10T09:25:25;1.10;;;0.85;;
7116;SDS011;3600;48.568;7.870;2023-05-10T09:27:52;1.67;;;0.93;;
7116;SDS011;3600;48.568;7.870;2023-05-10T09:30:26;1.85;;;0.90;;
7116;SDS011;3600;48.568;7.870;2023-05-10T09:32:54;0.82;;;0.70;;
7116;SDS011;3600;48.568;7.870;2023-05-10T09:35:23;4.05;;;0.60;;
7116;SDS011;3600;48.568;7.870;2023-05-10T09:37:56;0.90;;;0.60;;
7116;SDS011;3600;48.568;7.870;2023-05-10T09:40:29;0.43;;;0.30;;
7116;SDS011;3600;48.568;7.870;2023-05-10T09:42:57;0.50;;;0.50;;
7116;SDS011;3600;48.568;7.870;2023-05-10T09:45:24;1.02;;;0.70;;
7116;SDS011;3600;48.568;7.870;2023-05-10T09:47:52;3.20;;;0.93;;
7116;SDS011;3600;48.568;7.870;2023-05-10T09:50:20;4.85;;;0.80;;
7116;SDS011;3600;48.568;7.870;2023-05-10T09:53:00;0.70;;;0.70;;
7116;SDS011;3600;48.568;7.870;2023-05-10T09:58:06;0.57;;;0.55;;
7116;SDS011;3600;48.568;7.870;2023-05-10T10:00:37;1.27;;;0.60;;
7116;SDS011;3600;48.568;7.870;2023-05-10T10:03:15;0.90;;;0.57;;
7116;SDS011;3600;48.568;7.870;2023-05-10T10:05:44;1.10;;;0.90;;
7116;SDS011;3600;48.568;7.870;2023-05-10T10:08:12;1.70;;;0.55;;
7116;SDS011;3600;48.568;7.870;2023-05-10T10:10:40;0.55;;;0.55;;
7116;SDS011;3600;48.568;7.870;2023-05-10T10:13:07;1.30;;;0.90;;
7116;SDS011;3600;48.568;7.870;2023-05-10T10:15:34;1.83;;;0.52;;
7116;SDS011;3600;48.568;7.870;2023-05-10T10:18:02;0.65;;;0.57;;
7116;SDS011;3600;48.568;7.870;2023-05-10T10:20:33;0.40;;;0.40;;
7116;SDS011;3600;48.568;7.870;2023-05-10T10:22:59;0.90;;;0.57;;
7116;SDS011;3600;48.568;7.870;2023-05-10T10:25:26;0.60;;;0.60;;
7116;SDS011;3600;48.568;7.870;2023-05-10T10:30:28;1.95;;;0.65;;
7116;SDS011;3600;48.568;7.870;2023-05-10T10:33:51;1.17;;;0.80;;
7116;SDS011;3600;48.568;7.870;2023-05-10T10:36:13;0.80;;;0.70;;
7116;SDS011;3600;48.568;7.870;2023-05-10T10:41:33;1.52;;;0.60;;
7116;SDS011;3600;48.568;7.870;2023-05-10T10:46:59;1.35;;;0.80;;
7116;SDS011;3600;48.568;7.870;2023-05-10T10:49:42;0.65;;;0.40;;
7116;SDS011;3600;48.568;7.870;2023-05-10T10:52:14;1.48;;;0.60;;
7116;SDS011;3600;48.568;7.870;2023-05-10T10:54:50;0.52;;;0.52;;
7116;SDS011;3600;48.568;7.870;2023-05-10T10:57:18;0.55;;;0.52;;
7116;SDS011;3600;48.568;7.870;2023-05-10T10:59:47;0.50;;;0.50;;
7116;SDS011;3600;48.568;7.870;2023-05-10T11:02:32;0.50;;;0.50;;
7116;SDS011;3600;48.568;7.870;2023-05-10T11:10:49;0.40;;;0.40;;
7116;SDS011;3600;48.568;7.870;2023-05-10T11:13:26;1.95;;;1.00;;
7116;SDS011;3600;48.568;7.870;2023-05-10T11:15:55;2.05;;;0.60;;
7116;SDS011;3600;48.568;7.870;2023-05-10T11:18:29;1.45;;;0.80;;
7116;SDS011;3600;48.568;7.870;2023-05-10T11:26:15;1.70;;;0.70;;
7116;SDS011;3600;48.568;7.870;2023-05-10T11:28:46;2.10;;;0.57;;
7116;SDS011;3600;48.568;7.870;2023-05-10T11:31:17;0.40;;;0.40;;
7116;SDS011;3600;48.568;7.870;2023-05-10T11:33:45;4.32;;;2.55;;
7116;SDS011;3600;48.568;7.870;2023-05-10T11:36:14;1.83;;;1.15;;
7116;SDS011;3600;48.568;7.870;2023-05-10T11:38:42;1.02;;;0.68;;
7116;SDS011;3600;48.568;7.870;2023-05-10T11:41:09;0.40;;;0.40;;
7116;SDS011;3600;48.568;7.870;2023-05-10T11:43:40;3.05;;;0.80;;
7116;SDS011;3600;48.568;7.870;2023-05-10T11:46:09;0.40;;;0.40;;
7116;SDS011;3600;48.568;7.870;2023-05-10T11:48:41;0.40;;;0.40;;
7116;SDS011;3600;48.568;7.870;2023-05-10T11:51:09;0.93;;;0.55;;
7116;SDS011;3600;48.568;7.870;2023-05-10T11:53:36;2.33;;;0.38;;
7116;SDS011;3600;48.568;7.870;2023-05-10T11:56:07;1.05;;;0.70;;
7116;SDS011;3600;48.568;7.870;2023-05-10T11:58:35;0.60;;;0.55;;
7116;SDS011;3600;48.568;7.870;2023-05-10T12:01:04;0.43;;;0.43;;
7116;SDS011;3600;48.568;7.870;2023-05-10T12:03:32;1.65;;;0.50;;
7116;SDS011;3600;48.568;7.870;2023-05-10T12:06:01;0.60;;;0.30;;
7116;SDS011;3600;48.568;7.870;2023-05-10T12:08:29;1.00;;;0.35;;
7116;SDS011;3600;48.568;7.870;2023-05-10T12:11:06;0.45;;;0.45;;
7116;SDS011;3600;48.568;7.870;2023-05-10T12:13:41;0.95;;;0.35;;
7116;SDS011;3600;48.568;7.870;2023-05-10T12:16:12;1.58;;;0.60;;
7116;SDS011;3600;48.568;7.870;2023-05-10T12:18:45;1.23;;;0.68;;
7116;SDS011;3600;48.568;7.870;2023-05-10T12:21:14;1.60;;;0.88;;
7116;SDS011;3600;48.568;7.870;2023-05-10T12:23:41;0.68;;;0.50;;
7116;SDS011;3600;48.568;7.870;2023-05-10T12:26:08;0.82;;;0.30;;
7116;SDS011;3600;48.568;7.870;2023-05-10T12:28:36;0.38;;;0.38;;
7116;SDS011;3600;48.568;7.870;2023-05-10T12:31:03;1.00;;;0.70;;
7116;SDS011;3600;48.568;7.870;2023-05-10T12:33:38;0.40;;;0.40;;
7116;SDS011;3600;48.568;7.870;2023-05-10T12:36:11;1.73;;;0.60;;
7116;SDS011;3600;48.568;7.870;2023-05-10T12:38:40;1.48;;;0.63;;
7116;SDS011;3600;48.568;7.870;2023-05-10T12:41:14;0.75;;;0.50;;
7116;SDS011;3600;48.568;7.870;2023-05-10T12:43:43;3.83;;;0.80;;
7116;SDS011;3600;48.568;7.870;2023-05-10T12:46:11;0.82;;;0.50;;
7116;SDS011;3600;48.568;7.870;2023-05-10T12:48:39;0.50;;;0.50;;
7116;SDS011;3600;48.568;7.870;2023-05-10T12:51:07;1.77;;;0.52;;
7116;SDS011;3600;48.568;7.870;2023-05-10T12:53:35;0.80;;;0.57;;
7116;SDS011;3600;48.568;7.870;2023-05-10T12:56:03;0.70;;;0.45;;
7116;SDS011;3600;48.568;7.870;2023-05-10T12:58:31;0.45;;;0.45;;
7116;SDS011;3600;48.568;7.870;2023-05-10T13:01:01;1.20;;;0.40;;
7116;SDS011;3600;48.568;7.870;2023-05-10T13:03:29;0.85;;;0.50;;
7116;SDS011;3600;48.568;7.870;2023-05-10T13:05:55;1.38;;;0.60;;
7116;SDS011;3600;48.568;7.870;2023-05-10T13:08:22;0.65;;;0.50;;
7116;SDS011;3600;48.568;7.870;2023-05-10T13:10:49;0.38;;;0.20;;
7116;SDS011;3600;48.568;7.870;2023-05-10T13:13:16;0.82;;;0.45;;
7116;SDS011;3600;48.568;7.870;2023-05-10T13:15:43;0.43;;;0.40;;
7116;SDS011;3600;48.568;7.870;2023-05-10T13:18:10;1.30;;;0.63;;
7116;SDS011;3600;48.568;7.870;2023-05-10T13:20:37;0.90;;;0.52;;
7116;SDS011;3600;48.568;7.870;2023-05-10T13:23:04;0.30;;;0.30;;
7116;SDS011;3600;48.568;7.870;2023-05-10T13:25:31;1.67;;;0.60;;
7116;SDS011;3600;48.568;7.870;2023-05-10T13:27:57;0.57;;;0.47;;
7116;SDS011;3600;48.568;7.870;2023-05-10T13:30:24;1.70;;;0.52;;
7116;SDS011;3600;48.568;7.870;2023-05-10T13:32:51;0.30;;;0.30;;
7116;SDS011;3600;48.568;7.870;2023-05-10T13:35:18;0.63;;;0.50;;
7116;SDS011;3600;48.568;7.870;2023-05-10T13:37:44;0.63;;;0.30;;
7116;SDS011;3600;48.568;7.870;2023-05-10T13:40:11;0.50;;;0.50;;
7116;SDS011;3600;48.568;7.870;2023-05-10T13:42:38;1.13;;;0.60;;
7116;SDS011;3600;48.568;7.870;2023-05-10T13:45:06;0.63;;;0.50;;
7116;SDS011;3600;48.568;7.870;2023-05-10T13:47:33;0.85;;;0.60;;
7116;SDS011;3600;48.568;7.870;2023-05-10T13:49:59;0.65;;;0.50;;
7116;SDS011;3600;48.568;7.870;2023-05-10T13:52:26;0.57;;;0.55;;
7116;SDS011;3600;48.568;7.870;2023-05-10T13:54:53;0.75;;;0.50;;
7116;SDS011;3600;48.568;7.870;2023-05-10T13:57:21;0.40;;;0.40;;
7116;SDS011;3600;48.568;7.870;2023-05-10T13:59:50;0.30;;;0.30;;
7116;SDS011;3600;48.568;7.870;2023-05-10T14:02:16;0.95;;;0.47;;
7116;SDS011;3600;48.568;7.870;2023-05-10T14:04:43;0.30;;;0.30;;
7116;SDS011;3600;48.568;7.870;2023-05-10T14:07:10;1.65;;;0.60;;
7116;SDS011;3600;48.568;7.870;2023-05-10T14:09:37;0.43;;;0.38;;
7116;SDS011;3600;48.568;7.870;2023-05-10T14:12:04;1.58;;;0.55;;
7116;SDS011;3600;48.568;7.870;2023-05-10T14:14:30;1.00;;;0.40;;
7116;SDS011;3600;48.568;7.870;2023-05-10T14:16:57;0.38;;;0.30;;
7116;SDS011;3600;48.568;7.870;2023-05-10T14:19:25;0.70;;;0.60;;
7116;SDS011;3600;48.568;7.870;2023-05-10T14:21:53;0.50;;;0.38;;
7116;SDS011;3600;48.568;7.870;2023-05-10T14:24:20;1.55;;;0.52;;
7116;SDS011;3600;48.568;7.870;2023-05-10T14:26:46;0.40;;;0.40;;
7116;SDS011;3600;48.568;7.870;2023-05-10T14:29:13;0.50;;;0.30;;
7116;SDS011;3600;48.568;7.870;2023-05-10T14:31:40;0.70;;;0.20;;
7116;SDS011;3600;48.568;7.870;2023-05-10T14:34:06;0.40;;;0.40;;
7116;SDS011;3600;48.568;7.870;2023-05-10T14:36:33;0.40;;;0.40;;
7116;SDS011;3600;48.568;7.870;2023-05-10T14:39:00;0.80;;;0.50;;
7116;SDS011;3600;48.568;7.870;2023-05-10T14:41:27;1.08;;;0.50;;
7116;SDS011;3600;48.568;7.870;2023-05-10T14:43:53;0.40;;;0.40;;
7116;SDS011;3600;48.568;7.870;2023-05-10T14:46:20;0.30;;;0.30;;
7116;SDS011;3600;48.568;7.870;2023-05-10T14:48:47;1.63;;;0.45;;
7116;SDS011;3600;48.568;7.870;2023-05-10T14:51:13;0.40;;;0.40;;
7116;SDS011;3600;48.568;7.870;2023-05-10T14:53:40;0.30;;;0.30;;
7116;SDS011;3600;48.568;7.870;2023-05-10T14:56:07;0.30;;;0.30;;
7116;SDS011;3600;48.568;7.870;2023-05-10T14:58:33;0.50;;;0.50;;
7116;SDS011;3600;48.568;7.870;2023-05-10T15:01:00;0.60;;;0.57;;
7116;SDS011;3600;48.568;7.870;2023-05-10T15:03:28;0.50;;;0.50;;
7116;SDS011;3600;48.568;7.870;2023-05-10T15:05:55;0.43;;;0.43;;
7116;SDS011;3600;48.568;7.870;2023-05-10T15:08:23;0.50;;;0.50;;
7116;SDS011;3600;48.568;7.870;2023-05-10T15:10:51;0.30;;;0.30;;
7116;SDS011;3600;48.568;7.870;2023-05-10T15:13:18;0.52;;;0.52;;
7116;SDS011;3600;48.568;7.870;2023-05-10T15:15:44;1.13;;;0.40;;
7116;SDS011;3600;48.568;7.870;2023-05-10T15:18:11;0.30;;;0.30;;
7116;SDS011;3600;48.568;7.870;2023-05-10T15:20:38;0.52;;;0.52;;
7116;SDS011;3600;48.568;7.870;2023-05-10T15:23:05;1.63;;;0.47;;
7116;SDS011;3600;48.568;7.870;2023-05-10T15:25:31;0.40;;;0.40;;
7116;SDS011;3600;48.568;7.870;2023-05-10T15:28:01;0.28;;;0.28;;
7116;SDS011;3600;48.568;7.870;2023-05-10T15:30:28;0.52;;;0.38;;
7116;SDS011;3600;48.568;7.870;2023-05-10T15:32:55;0.28;;;0.28;;
7116;SDS011;3600;48.568;7.870;2023-05-10T15:35:22;0.70;;;0.47;;
7116;SDS011;3600;48.568;7.870;2023-05-10T15:37:49;1.08;;;0.57;;
7116;SDS011;3600;48.568;7.870;2023-05-10T15:40:16;0.50;;;0.50;;
7116;SDS011;3600;48.568;7.870;2023-05-10T15:42:42;0.40;;;0.40;;
7116;SDS011;3600;48.568;7.870;2023-05-10T15:45:09;1.10;;;0.57;;
7116;SDS011;3600;48.568;7.870;2023-05-10T15:47:37;1.10;;;0.60;;
7116;SDS011;3600;48.568;7.870;2023-05-10T15:50:06;0.30;;;0.30;;
7116;SDS011;3600;48.568;7.870;2023-05-10T15:52:33;1.80;;;0.50;;
7116;SDS011;3600;48.568;7.870;2023-05-10T15:55:01;0.70;;;0.70;;
7116;SDS011;3600;48.568;7.870;2023-05-10T15:57:29;0.75;;;0.40;;
7116;SDS011;3600;48.568;7.870;2023-05-10T15:59:56;0.50;;;0.50;;
7116;SDS011;3600;48.568;7.870;2023-05-10T16:02:23;2.83;;;0.70;;
7116;SDS011;3600;48.568;7.870;2023-05-10T16:04:50;1.80;;;0.50;;